createdAt,value
2022-08-07T00:02:40.559Z,25.70
2022-08-07T00:07:19.583Z,25.70
2022-08-07T00:12:23.509Z,25.70
2022-08-07T00:17:28.295Z,25.70
2022-08-07T00:22:37.574Z,25.60
2022-08-07T00:27:52.627Z,25.60
2022-08-07T00:32:58.100Z,25.50
2022-08-07T00:38:01.171Z,25.40
2022-08-07T00:43:03.593Z,25.40
2022-08-07T00:48:12.519Z,25.40
2022-08-07T00:53:15.518Z,25.40
2022-08-07T00:58:27.497Z,25.40
2022-08-07T01:03:56.411Z,25.40
2022-08-07T01:08:56.213Z,25.50
2022-08-07T01:14:00.105Z,25.50
2022-08-07T01:19:03.724Z,25.50
2022-08-07T01:24:07.419Z,25.50
2022-08-07T01:29:10.967Z,25.50
2022-08-07T01:34:14.095Z,25.50
2022-08-07T01:39:17.848Z,25.50
2022-08-07T01:44:28.289Z,25.50
2022-08-07T01:49:31.855Z,25.50
2022-08-07T01:54:39.627Z,25.50
2022-08-07T01:59:52.393Z,25.50
2022-08-07T02:05:02.455Z,25.50
2022-08-07T02:10:14.410Z,25.50
2022-08-07T02:15:26.359Z,25.40
2022-08-07T02:20:32.833Z,25.40
2022-08-07T02:26:30.953Z,25.40
2022-08-07T02:31:10.309Z,25.40
2022-08-07T02:36:30.176Z,25.40
2022-08-07T02:41:37.759Z,25.30
2022-08-07T02:46:42.737Z,25.30
2022-08-07T02:51:54.750Z,25.30
2022-08-07T02:57:01.508Z,25.30
2022-08-07T03:02:05.309Z,25.30
2022-08-07T03:07:10.559Z,25.20
2022-08-07T03:12:22.320Z,25.20
2022-08-07T03:17:53.283Z,25.20
2022-08-07T03:22:59.267Z,25.20
2022-08-07T03:28:09.408Z,25.20
2022-08-07T03:33:25.239Z,25.10
2022-08-07T03:38:37.151Z,25.10
2022-08-07T03:43:56.932Z,25.10
2022-08-07T03:49:03.144Z,25.10
2022-08-07T03:54:35.415Z,25.10
2022-08-07T03:59:33.197Z,25.10
2022-08-07T04:04:35.892Z,25.00
2022-08-07T04:09:45.079Z,25.00
2022-08-07T04:14:56.238Z,25.00
2022-08-07T04:19:59.144Z,25.00
2022-08-07T04:25:03.283Z,25.00
2022-08-07T04:30:21.584Z,25.00
2022-08-07T04:35:38.977Z,25.00
2022-08-07T04:40:52.869Z,25.00
2022-08-07T04:46:51.367Z,25.00
2022-08-07T04:52:29.927Z,25.00
2022-08-07T04:58:11.159Z,25.00
2022-08-07T05:03:59.875Z,24.90
2022-08-07T05:09:02.341Z,24.90
2022-08-07T05:14:55.284Z,25.00
2022-08-07T05:19:45.145Z,25.00
2022-08-07T05:24:50.805Z,25.00
2022-08-07T05:29:54.919Z,25.00
2022-08-07T05:35:00.790Z,25.00
2022-08-07T05:40:17.345Z,25.00
2022-08-07T05:45:28.062Z,25.00
2022-08-07T05:50:47.787Z,25.00
2022-08-07T05:56:03.290Z,25.00
2022-08-07T06:01:11.533Z,25.10
2022-08-07T06:06:18.890Z,25.00
2022-08-07T06:11:24.788Z,25.00
2022-08-07T06:16:34.961Z,25.10
2022-08-07T06:22:16.545Z,25.10
2022-08-07T06:27:03.781Z,25.10
2022-08-07T06:32:06.910Z,25.10
2022-08-07T06:37:11.339Z,25.10
2022-08-07T06:42:34.857Z,25.10
2022-08-07T06:47:57.521Z,25.10
2022-08-07T06:53:06.840Z,25.20
2022-08-07T06:58:32.093Z,25.20
2022-08-07T07:03:48.942Z,25.10
2022-08-07T07:09:31.231Z,25.20
2022-08-07T07:14:42.381Z,25.10
2022-08-07T07:19:57.330Z,25.20
2022-08-07T07:26:31.382Z,25.20
2022-08-07T07:30:42.273Z,25.10
2022-08-07T07:36:04.920Z,25.20
2022-08-07T07:41:31.056Z,25.20
2022-08-07T07:47:04.277Z,25.10
2022-08-07T07:52:23.440Z,25.00
2022-08-07T07:57:29.061Z,24.90
2022-08-07T08:03:04.644Z,25.00
2022-08-07T08:08:34.528Z,25.00
2022-08-07T08:13:54.332Z,25.00
2022-08-07T08:20:15.853Z,25.00
2022-08-07T08:25:24.625Z,25.00
2022-08-07T08:30:34.441Z,24.80
2022-08-07T08:35:39.427Z,24.60
2022-08-07T08:41:00.243Z,24.80
2022-08-07T08:46:12.340Z,24.80
2022-08-07T08:51:49.515Z,24.90
2022-08-07T08:57:36.974Z,24.90
2022-08-07T09:02:55.069Z,24.80
2022-08-07T09:08:42.166Z,24.90
2022-08-07T09:14:09.827Z,25.00
2022-08-07T09:19:52.214Z,24.90
2022-08-07T09:25:20.286Z,24.80
2022-08-07T09:30:52.867Z,24.90
2022-08-07T09:36:14.221Z,24.90
2022-08-07T09:41:58.545Z,24.80
2022-08-07T09:48:00.299Z,24.90
2022-08-07T09:53:06.938Z,24.90
2022-08-07T09:58:38.459Z,25.00
2022-08-07T10:04:14.760Z,25.00
2022-08-07T10:09:42.725Z,24.90
2022-08-07T10:15:18.375Z,25.00
2022-08-07T10:20:54.321Z,25.10
2022-08-07T10:26:27.335Z,24.90
2022-08-07T10:31:52.596Z,24.90
2022-08-07T10:36:58.095Z,25.10
2022-08-07T10:42:36.823Z,25.20
2022-08-07T10:48:05.047Z,25.10
2022-08-07T10:53:25.100Z,25.20
2022-08-07T10:58:47.611Z,25.40
2022-08-07T11:04:16.531Z,25.30
2022-08-07T11:10:07.375Z,25.20
2022-08-07T11:15:02.123Z,25.20
2022-08-07T11:20:10.761Z,25.20
2022-08-07T11:25:23.199Z,25.20
2022-08-07T11:30:39.038Z,25.40
2022-08-07T11:36:13.771Z,25.40
2022-08-07T11:41:29.628Z,25.50
2022-08-07T11:47:07.680Z,25.40
2022-08-07T11:52:35.807Z,25.40
2022-08-07T11:58:00.134Z,25.40
2022-08-07T12:03:42.099Z,25.30
2022-08-07T12:08:58.060Z,25.30
2022-08-07T12:14:08.947Z,25.20
2022-08-07T12:19:56.772Z,25.20
2022-08-07T12:26:05.882Z,25.40
2022-08-07T12:31:17.246Z,25.30
2022-08-07T12:36:32.772Z,25.60
2022-08-07T12:41:49.282Z,25.50
2022-08-07T12:47:26.977Z,25.40
2022-08-07T12:53:05.188Z,25.40
2022-08-07T12:58:21.326Z,25.50
2022-08-07T13:04:09.738Z,25.50
2022-08-07T13:10:19.879Z,25.60
2022-08-07T13:15:05.523Z,25.50
2022-08-07T13:20:17.804Z,25.60
2022-08-07T13:25:30.813Z,25.50
2022-08-07T13:30:40.162Z,25.40
2022-08-07T13:36:05.438Z,25.40
2022-08-07T13:41:25.317Z,25.40
2022-08-07T13:46:37.614Z,25.40
2022-08-07T13:52:23.165Z,25.30
2022-08-07T13:58:02.090Z,25.30
2022-08-07T14:03:29.347Z,25.30
2022-08-07T14:08:54.501Z,25.40
2022-08-07T14:14:10.965Z,25.40
2022-08-07T14:20:40.473Z,25.40
2022-08-07T14:24:57.201Z,25.50
2022-08-07T14:30:11.148Z,25.40
2022-08-07T14:35:45.308Z,25.40
2022-08-07T14:40:54.703Z,25.40
2022-08-07T14:45:59.488Z,25.40
2022-08-07T14:51:07.152Z,25.40
2022-08-07T15:01:51.099Z,25.40
2022-08-07T15:06:54.600Z,25.40
2022-08-07T15:12:05.033Z,25.40
2022-08-07T15:17:19.560Z,25.40
2022-08-07T15:22:29.411Z,25.30
2022-08-07T15:27:40.715Z,25.30
2022-08-07T15:33:19.150Z,25.20
2022-08-07T15:44:07.223Z,25.30
2022-08-07T15:49:15.264Z,25.20
2022-08-07T15:54:18.138Z,25.10
2022-08-07T15:59:40.075Z,25.10
2022-08-07T16:04:48.001Z,25.20
2022-08-07T16:09:53.781Z,25.10
2022-08-07T16:15:07.321Z,25.10
2022-08-07T16:20:33.910Z,25.10
2022-08-07T16:26:02.258Z,25.10
2022-08-07T16:31:57.388Z,25.10
2022-08-07T16:37:03.141Z,25.10
2022-08-07T16:42:34.789Z,25.10
2022-08-07T16:47:57.960Z,25.00
2022-08-07T16:54:01.738Z,25.00
2022-08-07T16:59:19.189Z,25.10
2022-08-07T17:04:57.962Z,25.00
2022-08-07T17:10:32.672Z,25.10
2022-08-07T17:15:44.594Z,25.10
2022-08-07T17:20:54.956Z,25.00
2022-08-07T17:26:50.937Z,25.00
2022-08-07T17:32:35.605Z,25.00
2022-08-07T17:38:06.595Z,25.00
2022-08-07T17:43:21.202Z,25.00
2022-08-07T17:49:23.003Z,25.00
2022-08-07T17:54:53.753Z,25.00
2022-08-07T18:00:03.625Z,25.00
2022-08-07T18:05:28.087Z,24.90
2022-08-07T18:12:16.506Z,24.90
2022-08-07T18:18:47.642Z,24.90
2022-08-07T18:23:42.499Z,24.90
2022-08-07T18:28:57.914Z,24.90
2022-08-07T18:34:37.838Z,24.90
2022-08-07T18:40:42.433Z,24.90
2022-08-07T18:46:21.987Z,24.90
2022-08-07T18:52:35.344Z,24.90
2022-08-07T18:57:39.983Z,24.80
2022-08-07T19:03:18.361Z,24.80
2022-08-07T19:09:09.513Z,24.70
2022-08-07T19:16:02.937Z,24.70
2022-08-07T19:21:08.384Z,24.70
2022-08-07T19:26:23.000Z,24.70
2022-08-07T19:32:08.274Z,24.60
2022-08-07T19:37:10.211Z,24.60
2022-08-07T19:42:24.524Z,24.60
2022-08-07T19:47:36.567Z,24.60
2022-08-07T19:52:42.130Z,24.70
2022-08-07T19:58:03.482Z,24.60
2022-08-07T20:03:34.527Z,24.70
2022-08-07T20:08:45.154Z,24.70
2022-08-07T20:13:56.055Z,24.70
2022-08-07T20:19:00.438Z,24.70
2022-08-07T20:24:13.113Z,24.60
2022-08-07T20:29:47.659Z,24.60
2022-08-07T20:35:00.251Z,24.60
2022-08-07T20:40:32.518Z,24.60
2022-08-07T20:46:28.721Z,24.60
2022-08-07T20:50:57.188Z,24.60
2022-08-07T20:56:01.421Z,24.60
2022-08-07T21:01:19.853Z,24.50
2022-08-07T21:06:31.670Z,24.50
2022-08-07T21:11:51.614Z,24.50
2022-08-07T21:18:02.603Z,24.50
2022-08-07T21:23:07.686Z,24.50
2022-08-07T21:29:18.618Z,24.50
2022-08-07T21:34:49.511Z,24.50
2022-08-07T21:40:13.696Z,24.50
2022-08-07T21:46:10.834Z,24.50
2022-08-07T21:51:58.778Z,24.50
2022-08-07T21:57:39.452Z,24.50
2022-08-07T22:02:50.906Z,24.40
2022-08-07T22:08:00.314Z,24.40
2022-08-07T22:13:09.314Z,24.40
2022-08-07T22:18:47.057Z,24.40
2022-08-07T22:24:01.316Z,24.40
2022-08-07T22:29:23.465Z,24.40
2022-08-07T22:34:56.007Z,24.40
2022-08-07T22:40:33.747Z,24.30
2022-08-07T22:46:21.582Z,24.40
2022-08-07T22:51:37.274Z,24.30
2022-08-07T22:57:14.947Z,24.30
2022-08-07T23:02:30.939Z,24.30
2022-08-07T23:08:12.166Z,24.30
2022-08-07T23:13:48.360Z,24.20
2022-08-07T23:19:48.087Z,24.30
2022-08-07T23:25:35.241Z,24.20
2022-08-07T23:31:06.492Z,24.20
2022-08-07T23:36:28.700Z,24.20
2022-08-07T23:41:47.487Z,24.20
2022-08-07T23:47:13.164Z,24.20
2022-08-07T23:53:00.145Z,24.20
2022-08-07T23:57:56.301Z,24.10
